LRI297 EDDM-LOWW
Flight info
| Callsign | LRI297 |
|---|---|
| Flight time | N/A |
| Altitude | 23000 |
| Route | KIRDI4N KIRDI DCT BUWOQ DCT MASUR MASUR3W |
| Aircraft | A20N/M-SDE2E3FGHIRWXY/LB1 |
Departure
| Time | 2026-05-05 05:08 |
|---|---|
| Airport | Munich Airport (EDDM) |
Arrival
| Time | N/A |
|---|---|
| Airport | Vienna International Airport (LOWW) |
| Time | Latitude | Longitude | Altitude | Speed | Heading |
|---|---|---|---|---|---|
| 2026-05-05 04:40 | 48.35526 | 11.79289 | 1450 ft | 0 kts | 263° |
| 2026-05-05 04:52 | 48.35526 | 11.79291 | 1450 ft | 2 kts | 263° |
| 2026-05-05 04:53 | 48.35528 | 11.79314 | 1450 ft | 2 kts | 263° |
| 2026-05-05 04:53 | 48.35530 | 11.79336 | 1449 ft | 2 kts | 263° |
| 2026-05-05 04:53 | 48.35531 | 11.79359 | 1449 ft | 2 kts | 263° |
| 2026-05-05 04:53 | 48.35533 | 11.79382 | 1449 ft | 2 kts | 265° |
| 2026-05-05 04:54 | 48.35531 | 11.79404 | 1449 ft | 2 kts | 290° |
| 2026-05-05 04:54 | 48.35524 | 11.79424 | 1449 ft | 2 kts | 310° |
| 2026-05-05 04:54 | 48.35513 | 11.79439 | 1449 ft | 2 kts | 330° |
| 2026-05-05 04:54 | 48.35499 | 11.79447 | 1449 ft | 1 kts | 349° |
| 2026-05-05 04:55 | 48.35493 | 11.79448 | 1449 ft | 1 kts | 355° |
| 2026-05-05 04:55 | 48.35491 | 11.79449 | 1449 ft | 0 kts | 354° |
| 2026-05-05 04:59 | 48.35552 | 11.79439 | 1449 ft | 13 kts | 354° |
| 2026-05-05 04:59 | 48.35645 | 11.79422 | 1449 ft | 14 kts | 353° |
| 2026-05-05 04:59 | 48.35745 | 11.79403 | 1449 ft | 14 kts | 353° |
| 2026-05-05 05:00 | 48.35847 | 11.79382 | 1449 ft | 15 kts | 352° |
| 2026-05-05 05:00 | 48.35951 | 11.79349 | 1449 ft | 15 kts | 343° |
| 2026-05-05 05:00 | 48.36058 | 11.79322 | 1447 ft | 17 kts | 7° |
| 2026-05-05 05:00 | 48.36108 | 11.79470 | 1443 ft | 18 kts | 89° |
| 2026-05-05 05:01 | 48.36118 | 11.79669 | 1440 ft | 21 kts | 84° |
| 2026-05-05 05:01 | 48.36140 | 11.79909 | 1438 ft | 25 kts | 83° |
| 2026-05-05 05:01 | 48.36162 | 11.80189 | 1436 ft | 27 kts | 84° |
| 2026-05-05 05:01 | 48.36181 | 11.80466 | 1435 ft | 26 kts | 84° |
| 2026-05-05 05:02 | 48.36202 | 11.80737 | 1432 ft | 26 kts | 83° |
| 2026-05-05 05:02 | 48.36224 | 11.81007 | 1429 ft | 26 kts | 83° |
| 2026-05-05 05:02 | 48.36244 | 11.81273 | 1429 ft | 25 kts | 84° |
| 2026-05-05 05:02 | 48.36262 | 11.81527 | 1429 ft | 24 kts | 84° |
| 2026-05-05 05:03 | 48.36284 | 11.81771 | 1430 ft | 23 kts | 81° |
| 2026-05-05 05:03 | 48.36300 | 11.82001 | 1429 ft | 22 kts | 78° |
| 2026-05-05 05:03 | 48.36352 | 11.82223 | 1429 ft | 21 kts | 47° |
| 2026-05-05 05:03 | 48.36480 | 11.82293 | 1429 ft | 20 kts | 353° |
| 2026-05-05 05:04 | 48.36594 | 11.82219 | 1429 ft | 8 kts | 310° |
| 2026-05-05 05:04 | 48.36597 | 11.82214 | 1429 ft | 0 kts | 309° |
| 2026-05-05 05:05 | 48.36602 | 11.82204 | 1429 ft | 3 kts | 308° |
| 2026-05-05 05:06 | 48.36636 | 11.82134 | 1429 ft | 11 kts | 303° |
| 2026-05-05 05:06 | 48.36670 | 11.82001 | 1429 ft | 15 kts | 278° |
| 2026-05-05 05:06 | 48.36667 | 11.81840 | 1429 ft | 10 kts | 264° |
| 2026-05-05 05:06 | 48.36667 | 11.81830 | 1429 ft | 0 kts | 264° |
| 2026-05-05 05:07 | 48.36650 | 11.81611 | 1429 ft | 57 kts | 263° |
| 2026-05-05 05:07 | 48.36575 | 11.80649 | 1432 ft | 124 kts | 263° |
| 2026-05-05 05:07 | 48.36452 | 11.79057 | 1463 ft | 174 kts | 264° |
| 2026-05-05 05:08 | 48.36327 | 11.77198 | 2016 ft | 180 kts | 264° |
| 2026-05-05 05:08 | 48.36181 | 11.75396 | 2899 ft | 172 kts | 265° |
| 2026-05-05 05:08 | 48.36028 | 11.73601 | 3542 ft | 180 kts | 262° |
| 2026-05-05 05:08 | 48.35449 | 11.71817 | 4002 ft | 201 kts | 226° |
| 2026-05-05 05:09 | 48.34135 | 11.70835 | 4470 ft | 220 kts | 188° |
| 2026-05-05 05:09 | 48.32543 | 11.70798 | 5098 ft | 230 kts | 179° |
| 2026-05-05 05:09 | 48.30883 | 11.70805 | 5783 ft | 239 kts | 179° |
| 2026-05-05 05:09 | 48.29229 | 11.70881 | 6438 ft | 236 kts | 169° |
| 2026-05-05 05:10 | 48.27675 | 11.71757 | 6792 ft | 246 kts | 148° |
| 2026-05-05 05:10 | 48.26126 | 11.73312 | 7187 ft | 267 kts | 144° |
| 2026-05-05 05:10 | 48.24564 | 11.74956 | 7835 ft | 277 kts | 145° |
| 2026-05-05 05:10 | 48.22974 | 11.76610 | 8675 ft | 279 kts | 146° |
| 2026-05-05 05:11 | 48.21371 | 11.78253 | 9537 ft | 280 kts | 146° |
| 2026-05-05 05:11 | 48.19736 | 11.79997 | 10409 ft | 281 kts | 139° |
| 2026-05-05 05:11 | 48.18595 | 11.82393 | 11137 ft | 287 kts | 112° |
| 2026-05-05 05:11 | 48.18252 | 11.85416 | 11880 ft | 296 kts | 89° |